createdAt,value
2018-02-11T00:00:05.306Z,0
2018-02-11T00:05:02.811Z,0
2018-02-11T00:10:03.369Z,0
2018-02-11T00:15:02.858Z,1
2018-02-11T00:20:03.323Z,1
2018-02-11T00:25:02.833Z,0
2018-02-11T00:30:03.331Z,0
2018-02-11T00:35:02.765Z,0
2018-02-11T00:40:03.267Z,0
2018-02-11T00:45:02.710Z,0
2018-02-11T00:50:03.182Z,0
2018-02-11T00:55:03.279Z,1
2018-02-11T01:00:02.758Z,0
2018-02-11T01:05:02.789Z,0
2018-02-11T01:10:03.359Z,0
2018-02-11T01:15:02.800Z,0
2018-02-11T01:20:03.319Z,0
2018-02-11T01:25:02.770Z,0
2018-02-11T01:30:03.253Z,0
2018-02-11T01:35:02.764Z,0
2018-02-11T01:40:03.317Z,0
2018-02-11T01:45:02.653Z,0
2018-02-11T01:50:03.088Z,0
2018-02-11T01:55:02.648Z,0
2018-02-11T02:00:03.098Z,0
2018-02-11T02:05:02.555Z,0
2018-02-11T02:10:03.069Z,0
2018-02-11T02:15:02.511Z,0
2018-02-11T02:20:03.105Z,0
2018-02-11T02:25:02.561Z,0
2018-02-11T02:30:03.043Z,0
2018-02-11T02:35:02.614Z,0
2018-02-11T02:40:03.106Z,0
2018-02-11T02:45:02.604Z,0
2018-02-11T02:50:03.063Z,0
2018-02-11T02:55:02.540Z,0
2018-02-11T03:00:03.008Z,0
2018-02-11T03:05:02.503Z,0
2018-02-11T03:10:02.957Z,0
2018-02-11T03:15:03.619Z,0
2018-02-11T03:20:03.090Z,0
2018-02-11T03:25:02.514Z,0
2018-02-11T03:30:03.045Z,0
2018-02-11T03:35:02.545Z,0
2018-02-11T03:40:03.072Z,1
2018-02-11T03:45:02.461Z,0
2018-02-11T03:50:02.863Z,0
2018-02-11T03:55:03.387Z,1
2018-02-11T04:00:03.218Z,0
2018-02-11T04:05:02.711Z,1
2018-02-11T04:10:03.313Z,0
2018-02-11T04:15:02.769Z,0
2018-02-11T04:20:03.165Z,1
2018-02-11T04:25:02.680Z,0
2018-02-11T04:30:03.185Z,0
2018-02-11T04:35:02.662Z,0
2018-02-11T04:40:03.197Z,1
2018-02-11T04:45:02.635Z,0
2018-02-11T04:50:03.107Z,0
2018-02-11T04:55:02.868Z,0
2018-02-11T05:00:03.354Z,0
2018-02-11T05:05:02.764Z,0
2018-02-11T05:10:03.279Z,0
2018-02-11T05:15:02.724Z,1
2018-02-11T05:20:03.443Z,0
2018-02-11T05:25:02.991Z,0
2018-02-11T05:30:03.288Z,0
2018-02-11T05:35:02.737Z,0
2018-02-11T05:40:03.256Z,0
2018-02-11T05:45:02.709Z,0
2018-02-11T05:50:02.497Z,0
2018-02-11T05:55:02.922Z,0
2018-02-11T06:00:03.408Z,0
2018-02-11T06:05:02.905Z,1
2018-02-11T06:10:03.361Z,1
2018-02-11T06:15:02.821Z,0
2018-02-11T06:20:03.313Z,1
2018-02-11T06:25:02.844Z,1
2018-02-11T06:30:03.260Z,1
2018-02-11T06:35:02.763Z,2
2018-02-11T06:40:03.247Z,4
2018-02-11T06:45:02.701Z,8
2018-02-11T06:50:03.160Z,13
2018-02-11T06:55:02.558Z,17
2018-02-11T07:00:02.994Z,23
2018-02-11T07:05:02.578Z,44
2018-02-11T07:10:03.152Z,41
2018-02-11T07:15:02.527Z,57
2018-02-11T07:20:03.157Z,65
2018-02-11T07:25:02.918Z,63
2018-02-11T07:30:03.367Z,84
2018-02-11T07:35:02.931Z,143
2018-02-11T07:40:02.520Z,263
2018-02-11T07:45:03.017Z,272
2018-02-11T07:50:02.478Z,328
2018-02-11T07:55:02.936Z,322
2018-02-11T08:00:03.464Z,721
2018-02-11T08:05:02.865Z,984
2018-02-11T08:10:03.400Z,1000
2018-02-11T08:15:02.862Z,2000
2018-02-11T08:20:03.361Z,2000
2018-02-11T08:25:02.855Z,1000
2018-02-11T08:30:03.342Z,2000
2018-02-11T08:35:02.758Z,934
2018-02-11T08:40:03.350Z,1000
2018-02-11T08:45:02.902Z,1000
2018-02-11T08:50:02.510Z,1000
2018-02-11T08:55:02.959Z,3000
2018-02-11T09:00:02.516Z,3000
2018-02-11T09:05:03.090Z,3000
2018-02-11T09:10:02.646Z,3000
2018-02-11T09:15:03.105Z,3000
2018-02-11T09:20:02.617Z,4000
2018-02-11T09:25:03.115Z,3000
2018-02-11T09:30:02.508Z,4000
2018-02-11T09:35:03.005Z,6000
2018-02-11T09:40:02.479Z,5000
2018-02-11T09:45:02.981Z,6000
2018-02-11T09:50:02.715Z,6000
2018-02-11T09:55:03.160Z,8000
2018-02-11T10:00:02.526Z,5000
2018-02-11T10:05:03.060Z,5000
2018-02-11T10:10:02.676Z,7000
2018-02-11T10:15:03.162Z,6000
2018-02-11T10:20:02.683Z,8000
2018-02-11T10:25:03.172Z,10000
2018-02-11T10:30:02.546Z,5000
2018-02-11T10:35:03.040Z,8000
2018-02-11T10:40:02.451Z,5000
2018-02-11T10:45:02.919Z,8000
2018-02-11T10:50:03.383Z,5000
2018-02-11T10:55:02.823Z,3000
2018-02-11T11:00:03.320Z,2000
2018-02-11T11:05:02.843Z,3000
2018-02-11T11:10:03.456Z,3000
2018-02-11T11:15:02.933Z,14000
2018-02-11T11:20:02.487Z,5000
2018-02-11T11:25:02.875Z,5000
2018-02-11T11:30:03.415Z,3000
2018-02-11T11:35:03.297Z,38000
2018-02-11T11:40:02.839Z,9000
2018-02-11T11:45:03.431Z,8000
2018-02-11T11:50:02.900Z,3000
2018-02-11T11:55:03.382Z,3000
2018-02-11T12:00:02.971Z,3000
2018-02-11T12:05:02.481Z,2000
2018-02-11T12:10:03.153Z,4000
2018-02-11T12:15:02.580Z,6000
2018-02-11T12:20:03.071Z,5000
2018-02-11T12:25:02.629Z,4000
2018-02-11T12:30:03.333Z,17000
2018-02-11T12:35:02.901Z,18000
2018-02-11T12:40:02.463Z,14000
2018-02-11T12:45:02.936Z,3000
2018-02-11T12:50:02.522Z,1000
2018-02-11T12:55:03.028Z,2000
2018-02-11T13:00:02.490Z,3000
2018-02-11T13:05:03.052Z,3000
2018-02-11T13:10:02.545Z,23000
2018-02-11T13:15:03.021Z,16000
2018-02-11T13:20:02.594Z,3000
2018-02-11T13:25:02.971Z,29000
2018-02-11T13:30:03.422Z,27000
2018-02-11T13:35:02.899Z,16000
2018-02-11T13:40:03.416Z,19000
2018-02-11T13:45:02.963Z,2000
2018-02-11T13:50:03.352Z,1000
2018-02-11T13:55:02.779Z,4000
2018-02-11T14:00:03.331Z,6000
2018-02-11T14:05:02.956Z,4000
2018-02-11T14:10:02.637Z,4000
2018-02-11T14:15:03.070Z,1000
2018-02-11T14:20:02.644Z,1000
2018-02-11T14:25:03.132Z,1000
2018-02-11T14:30:02.562Z,10000
2018-02-11T14:35:03.046Z,7000
2018-02-11T14:40:02.601Z,14000
2018-02-11T14:45:03.053Z,10000
2018-02-11T14:50:02.481Z,8000
2018-02-11T14:55:02.980Z,13000
2018-02-11T15:00:03.441Z,13000
2018-02-11T15:05:02.872Z,7000
2018-02-11T15:10:03.465Z,4000
2018-02-11T15:15:02.921Z,7000
2018-02-11T15:20:03.408Z,8000
2018-02-11T15:25:02.908Z,4000
2018-02-11T15:30:03.372Z,7000
2018-02-11T15:35:02.873Z,2000
2018-02-11T15:40:03.409Z,2000
2018-02-11T15:45:02.918Z,1000
2018-02-11T15:50:03.461Z,1000
2018-02-11T15:55:02.933Z,1000
2018-02-11T16:00:03.418Z,1000
2018-02-11T16:05:02.879Z,1000
2018-02-11T16:10:03.380Z,607
2018-02-11T16:15:02.843Z,590
2018-02-11T16:20:03.328Z,510
2018-02-11T16:25:02.810Z,361
2018-02-11T16:30:03.219Z,259
2018-02-11T16:35:02.813Z,130
2018-02-11T16:40:03.431Z,66
2018-02-11T16:45:03.018Z,65
2018-02-11T16:50:02.564Z,59
2018-02-11T16:55:03.055Z,47
2018-02-11T17:00:02.733Z,40
2018-02-11T17:05:03.433Z,28
2018-02-11T17:10:02.970Z,13
2018-02-11T17:15:03.444Z,4
2018-02-11T17:20:02.985Z,2
2018-02-11T17:25:02.628Z,1
2018-02-11T17:30:03.145Z,0
2018-02-11T17:35:02.709Z,0
2018-02-11T17:40:03.267Z,0
2018-02-11T17:45:02.749Z,0
2018-02-11T17:50:03.228Z,0
2018-02-11T17:55:02.597Z,0
2018-02-11T18:00:03.049Z,0
2018-02-11T18:05:03.454Z,0
2018-02-11T18:10:02.955Z,0
2018-02-11T18:15:03.390Z,0
2018-02-11T18:20:02.882Z,0
2018-02-11T18:25:03.393Z,0
2018-02-11T18:30:02.894Z,0
2018-02-11T18:35:03.309Z,0
2018-02-11T18:40:02.815Z,0
2018-02-11T18:45:03.260Z,0
2018-02-11T18:50:02.639Z,0
2018-02-11T18:55:03.056Z,0
2018-02-11T19:00:02.498Z,0
2018-02-11T19:05:02.926Z,0
2018-02-11T19:10:03.423Z,0
2018-02-11T19:15:02.830Z,0
2018-02-11T19:20:03.374Z,0
2018-02-11T19:25:02.789Z,0
2018-02-11T19:30:03.294Z,0
2018-02-11T19:35:02.772Z,0
2018-02-11T19:40:03.242Z,0
2018-02-11T19:45:02.667Z,0
2018-02-11T19:50:03.141Z,0
2018-02-11T19:55:02.618Z,0
2018-02-11T20:00:03.203Z,0
2018-02-11T20:05:02.632Z,0
2018-02-11T20:10:03.219Z,0
2018-02-11T20:15:02.817Z,0
2018-02-11T20:20:03.320Z,0
2018-02-11T20:25:02.767Z,0
2018-02-11T20:30:03.297Z,0
2018-02-11T20:35:02.844Z,0
2018-02-11T20:40:03.357Z,0
2018-02-11T20:45:02.844Z,0
2018-02-11T20:50:03.350Z,0
2018-02-11T20:55:02.801Z,0
2018-02-11T21:00:03.306Z,0
2018-02-11T21:05:02.785Z,0
2018-02-11T21:10:03.428Z,0
2018-02-11T21:15:02.875Z,0
2018-02-11T21:20:03.451Z,0
2018-02-11T21:25:02.906Z,0
2018-02-11T21:30:03.425Z,0
2018-02-11T21:35:02.843Z,0
2018-02-11T21:40:03.442Z,0
2018-02-11T21:45:03.031Z,0
2018-02-11T21:50:02.567Z,0
2018-02-11T21:55:03.010Z,0
2018-02-11T22:00:02.662Z,0
2018-02-11T22:05:03.154Z,0
2018-02-11T22:10:02.635Z,0
2018-02-11T22:15:03.130Z,0
2018-02-11T22:20:02.600Z,0
2018-02-11T22:25:03.049Z,0
2018-02-11T22:30:02.477Z,0
2018-02-11T22:35:02.951Z,0
2018-02-11T22:40:02.470Z,0
2018-02-11T22:45:02.892Z,0
2018-02-11T22:50:03.284Z,0
2018-02-11T22:55:02.793Z,0
2018-02-11T23:00:03.299Z,0
2018-02-11T23:05:02.736Z,0
2018-02-11T23:10:03.254Z,0
2018-02-11T23:15:02.623Z,0
2018-02-11T23:20:03.272Z,0
2018-02-11T23:25:02.753Z,0
2018-02-11T23:30:03.151Z,0
2018-02-11T23:35:02.595Z,0
2018-02-11T23:40:03.015Z,0
2018-02-11T23:45:02.600Z,0
2018-02-11T23:50:02.997Z,0
2018-02-11T23:55:03.432Z,0
